Time;durP1;ratioP1;P1;durP2;ratioP2;P2;SDS_P1;SDS_P2;PMS_P1;PMS_P2;Temp;Humidity;BMP_temperature;BMP_pressure;BME280_temperature;BME280_humidity;BME280_pressure;Samples;Min_cycle;Max_cycle;Signal;HPM_P1;HPM_P2
2020/12/26 00:01:21;;;;;;;12.33;11.03;;;;;;;;;;4995668;28;20185;-84
2020/12/26 00:03:49;;;;;;;12.90;11.67;;;;;;;;;;4995133;28;20232;-85
2020/12/26 00:06:20;;;;;;;12.43;11.23;;;;;;;;;;4996895;28;20273;-85
2020/12/26 00:08:50;;;;;;;11.80;10.57;;;;;;;;;;4997369;28;20195;-85
2020/12/26 00:11:20;;;;;;;18.93;12.37;;;;;;;;;;4997009;28;20174;-85
2020/12/26 00:13:49;;;;;;;14.57;13.07;;;;;;;;;;4996145;28;20201;-84
2020/12/26 00:16:17;;;;;;;13.70;12.30;;;;;;;;;;4997224;28;20186;-85
2020/12/26 00:18:44;;;;;;;12.83;11.63;;;;;;;;;;4996153;28;20276;-83
2020/12/26 00:21:12;;;;;;;15.00;13.47;;;;;;;;;;4997793;28;20700;-83
2020/12/26 00:23:41;;;;;;;15.93;13.33;;;;;;;;;;4997270;28;20233;-82
2020/12/26 00:26:07;;;;;;;17.83;13.90;;;;;;;;;;4995618;28;20203;-85
2020/12/26 00:28:34;;;;;;;20.87;13.93;;;;;;;;;;4995780;28;20556;-85
2020/12/26 00:31:01;;;;;;;17.77;11.00;;;;;;;;;;4996955;28;20253;-85
2020/12/26 00:33:28;;;;;;;15.83;11.73;;;;;;;;;;4999164;28;20198;-85
2020/12/26 00:35:57;;;;;;;12.63;11.33;;;;;;;;;;4997098;28;20194;-84
2020/12/26 00:38:25;;;;;;;13.73;11.77;;;;;;;;;;4998007;28;20174;-84
2020/12/26 00:40:58;;;;;;;15.07;13.50;;;;;;;;;;4996856;28;20178;-85
2020/12/26 00:43:34;;;;;;;16.70;14.03;;;;;;;;;;4994740;28;20221;-85
2020/12/26 00:46:05;;;;;;;17.50;15.90;;;;;;;;;;4994465;28;20229;-84
2020/12/26 00:48:33;;;;;;;18.03;15.60;;;;;;;;;;4994431;28;20177;-84
2020/12/26 00:50:59;;;;;;;17.23;15.70;;;;;;;;;;4994693;28;20309;-85
2020/12/26 00:53:28;;;;;;;17.47;15.67;;;;;;;;;;4995746;28;20209;-86
2020/12/26 00:56:01;;;;;;;16.20;14.53;;;;;;;;;;4994382;28;20713;-87
2020/12/26 00:58:34;;;;;;;19.67;14.93;;;;;;;;;;4995580;28;20181;-87
2020/12/26 01:01:04;;;;;;;17.07;15.47;;;;;;;;;;4995533;28;20661;-87
2020/12/26 01:03:31;;;;;;;18.90;17.00;;;;;;;;;;5082297;23;20233;-88
2020/12/26 01:06:00;;;;;;;18.03;16.33;;;;;;;;;;4995221;28;20200;-88
2020/12/26 01:08:28;;;;;;;19.43;17.60;;;;;;;;;;4995289;28;20179;-88
2020/12/26 01:10:54;;;;;;;21.83;19.60;;;;;;;;;;4993979;28;20240;-86
2020/12/26 01:13:21;;;;;;;26.63;20.00;;;;;;;;;;4995067;28;20268;-85
2020/12/26 01:15:47;;;;;;;23.03;19.20;;;;;;;;;;4994578;28;20180;-85
2020/12/26 01:18:18;;;;;;;21.83;19.60;;;;;;;;;;4995062;28;20265;-85
2020/12/26 01:20:44;;;;;;;19.90;17.70;;;;;;;;;;4993824;28;20177;-85
2020/12/26 01:23:10;;;;;;;20.20;18.20;;;;;;;;;;4993654;28;20198;-85
2020/12/26 01:25:39;;;;;;;20.67;18.77;;;;;;;;;;4993753;28;20249;-86
2020/12/26 01:28:11;;;;;;;22.00;19.63;;;;;;;;;;4993763;28;20182;-86
2020/12/26 01:30:40;;;;;;;23.43;20.90;;;;;;;;;;4995061;28;20252;-85
2020/12/26 01:33:11;;;;;;;26.07;22.40;;;;;;;;;;4994731;28;20221;-85
2020/12/26 01:35:37;;;;;;;25.10;22.60;;;;;;;;;;4994773;28;20185;-85
2020/12/26 01:38:11;;;;;;;24.43;21.73;;;;;;;;;;4994770;28;20587;-85
2020/12/26 01:40:41;;;;;;;19.83;18.03;;;;;;;;;;4993471;28;20248;-86
2020/12/26 01:43:10;;;;;;;22.07;19.77;;;;;;;;;;4994735;28;20203;-85
2020/12/26 01:45:37;;;;;;;22.80;20.47;;;;;;;;;;4993350;28;20588;-85
2020/12/26 01:48:04;;;;;;;23.63;19.60;;;;;;;;;;4993430;28;20177;-85
2020/12/26 01:50:30;;;;;;;21.57;18.87;;;;;;;;;;4993317;28;20649;-85
2020/12/26 01:52:59;;;;;;;23.33;20.57;;;;;;;;;;4993160;28;20270;-85
2020/12/26 01:55:27;;;;;;;22.57;20.00;;;;;;;;;;4993245;28;20192;-85
2020/12/26 01:57:53;;;;;;;25.73;21.70;;;;;;;;;;4993124;28;20242;-85
2020/12/26 02:00:20;;;;;;;25.90;19.63;;;;;;;;;;4993168;28;20180;-85
2020/12/26 02:02:49;;;;;;;22.80;20.43;;;;;;;;;;4993060;28;20213;-85
2020/12/26 02:05:17;;;;;;;24.43;19.40;;;;;;;;;;4994798;28;20197;-86
2020/12/26 02:07:45;;;;;;;22.93;20.03;;;;;;;;;;4992924;28;20201;-85
2020/12/26 02:10:13;;;;;;;22.63;20.33;;;;;;;;;;4992921;28;20190;-85
2020/12/26 02:12:42;;;;;;;24.93;22.33;;;;;;;;;;4994454;28;20177;-85
2020/12/26 02:15:13;;;;;;;19.73;17.73;;;;;;;;;;4992977;28;20191;-85
2020/12/26 02:17:50;;;;;;;20.07;17.43;;;;;;;;;;4993050;28;20195;-85
2020/12/26 02:20:18;;;;;;;22.23;19.93;;;;;;;;;;4994478;28;20518;-85
2020/12/26 02:22:46;;;;;;;22.03;19.83;;;;;;;;;;4994425;28;20176;-85
2020/12/26 02:25:14;;;;;;;22.70;19.30;;;;;;;;;;4992671;28;20183;-84
2020/12/26 02:27:47;;;;;;;25.10;19.97;;;;;;;;;;4993905;28;20202;-84
2020/12/26 02:30:16;;;;;;;21.13;18.77;;;;;;;;;;4994312;28;20188;-86
2020/12/26 02:32:45;;;;;;;25.87;21.27;;;;;;;;;;4992954;28;20180;-85
2020/12/26 02:35:16;;;;;;;27.20;22.10;;;;;;;;;;4992619;28;20273;-86
2020/12/26 02:37:49;;;;;;;22.27;19.30;;;;;;;;;;4993918;28;20213;-87
2020/12/26 02:40:16;;;;;;;25.20;20.80;;;;;;;;;;4993941;28;20267;-86
2020/12/26 02:42:44;;;;;;;30.93;22.63;;;;;;;;;;4993797;28;20184;-86
2020/12/26 02:45:11;;;;;;;27.63;23.67;;;;;;;;;;4992602;28;20275;-86
2020/12/26 02:47:46;;;;;;;31.33;24.20;;;;;;;;;;4993784;28;20201;-87
2020/12/26 02:50:15;;;;;;;24.57;21.93;;;;;;;;;;4993795;28;20180;-87
2020/12/26 02:52:46;;;;;;;30.77;23.03;;;;;;;;;;4993569;28;20190;-87
2020/12/26 02:55:12;;;;;;;24.87;22.17;;;;;;;;;;4993127;28;20196;-87
2020/12/26 02:57:40;;;;;;;27.23;23.40;;;;;;;;;;4992487;28;20240;-87
2020/12/26 03:00:09;;;;;;;25.13;22.60;;;;;;;;;;4992535;28;20658;-87
2020/12/26 03:02:35;;;;;;;28.43;21.53;;;;;;;;;;4992422;28;20193;-87
2020/12/26 03:05:01;;;;;;;24.60;22.20;;;;;;;;;;4992568;28;20256;-87
2020/12/26 03:07:27;;;;;;;27.23;24.17;;;;;;;;;;4992454;28;20197;-87
2020/12/26 03:09:55;;;;;;;29.30;26.20;;;;;;;;;;4993629;28;20232;-87
2020/12/26 03:12:24;;;;;;;29.93;26.20;;;;;;;;;;4992344;28;20188;-87
2020/12/26 03:14:55;;;;;;;32.70;27.30;;;;;;;;;;4993509;28;20198;-87
2020/12/26 03:17:21;;;;;;;30.00;24.47;;;;;;;;;;4993838;28;20190;-87
2020/12/26 03:19:55;;;;;;;31.27;26.50;;;;;;;;;;4992349;28;20184;-87
2020/12/26 03:22:24;;;;;;;26.50;23.67;;;;;;;;;;4992625;28;20200;-87
2020/12/26 03:24:55;;;;;;;33.57;24.60;;;;;;;;;;4993726;28;20577;-87
2020/12/26 03:27:26;;;;;;;30.60;23.73;;;;;;;;;;4992126;28;20237;-87
2020/12/26 03:29:58;;;;;;;24.47;21.20;;;;;;;;;;4993344;28;20178;-86
2020/12/26 03:32:30;;;;;;;24.70;22.27;;;;;;;;;;4992190;28;20177;-86
2020/12/26 03:35:06;;;;;;;22.70;20.40;;;;;;;;;;4992096;28;20220;-86
2020/12/26 03:37:44;;;;;;;21.23;18.97;;;;;;;;;;4993334;28;20181;-86
2020/12/26 03:40:14;;;;;;;21.63;19.43;;;;;;;;;;4995794;28;20182;-86
2020/12/26 03:42:45;;;;;;;20.33;18.07;;;;;;;;;;4995641;28;20220;-87
2020/12/26 03:45:19;;;;;;;22.27;19.37;;;;;;;;;;4997190;28;20197;-87
2020/12/26 03:47:53;;;;;;;24.30;18.93;;;;;;;;;;4996191;28;20229;-87
2020/12/26 03:50:27;;;;;;;20.50;18.37;;;;;;;;;;4996370;28;20230;-86
2020/12/26 03:52:55;;;;;;;17.90;16.07;;;;;;;;;;4995440;28;20170;-86
2020/12/26 03:55:21;;;;;;;18.97;17.17;;;;;;;;;;4996770;28;20178;-86
2020/12/26 03:57:51;;;;;;;19.83;17.83;;;;;;;;;;4995686;28;20186;-86
2020/12/26 04:00:25;;;;;;;18.00;16.10;;;;;;;;;;4996878;28;20186;-86
2020/12/26 04:02:53;;;;;;;17.93;15.90;;;;;;;;;;4995158;28;20193;-86
2020/12/26 04:05:21;;;;;;;20.57;18.57;;;;;;;;;;4995365;28;20568;-86
2020/12/26 04:07:51;;;;;;;22.13;19.83;;;;;;;;;;4995256;28;20206;-86
2020/12/26 04:10:17;;;;;;;20.63;18.83;;;;;;;;;;4996875;28;20654;-86
2020/12/26 04:12:47;;;;;;;21.10;19.00;;;;;;;;;;4995184;28;20190;-86
2020/12/26 04:15:17;;;;;;;20.77;17.67;;;;;;;;;;4996412;28;20551;-86
2020/12/26 04:17:48;;;;;;;19.07;17.37;;;;;;;;;;4995033;28;20236;-87
2020/12/26 04:20:26;;;;;;;20.13;18.33;;;;;;;;;;4994936;28;20190;-87
2020/12/26 04:22:58;;;;;;;20.27;17.47;;;;;;;;;;4996234;28;20167;-87
2020/12/26 04:25:28;;;;;;;21.63;19.67;;;;;;;;;;4994957;28;20182;-86
2020/12/26 04:27:58;;;;;;;22.13;20.13;;;;;;;;;;4994716;28;20296;-86
2020/12/26 04:30:30;;;;;;;20.83;18.93;;;;;;;;;;4994894;28;20701;-87
2020/12/26 04:33:06;;;;;;;19.93;18.23;;;;;;;;;;4994700;28;20179;-87
2020/12/26 04:35:38;;;;;;;20.37;18.30;;;;;;;;;;4996103;28;20185;-87
2020/12/26 04:38:09;;;;;;;19.17;17.33;;;;;;;;;;4995944;28;20647;-87
2020/12/26 04:40:40;;;;;;;17.40;16.03;;;;;;;;;;4996165;28;20205;-87
2020/12/26 04:43:07;;;;;;;17.93;16.07;;;;;;;;;;4994610;28;20211;-87
2020/12/26 04:45:34;;;;;;;20.80;18.50;;;;;;;;;;4995875;28;20562;-86
2020/12/26 04:48:10;;;;;;;19.17;17.23;;;;;;;;;;4994451;28;20573;-87
2020/12/26 04:50:44;;;;;;;19.03;17.33;;;;;;;;;;4994902;28;20174;-87
2020/12/26 04:53:20;;;;;;;19.10;17.50;;;;;;;;;;4994434;28;20198;-86
2020/12/26 04:55:50;;;;;;;19.23;17.63;;;;;;;;;;4995305;28;20177;-86
2020/12/26 04:58:21;;;;;;;19.13;17.37;;;;;;;;;;4994293;28;20650;-86
2020/12/26 05:00:49;;;;;;;19.63;17.80;;;;;;;;;;4994355;28;20554;-87
2020/12/26 05:03:20;;;;;;;19.83;17.80;;;;;;;;;;4994265;28;20233;-87
2020/12/26 05:05:51;;;;;;;18.53;17.00;;;;;;;;;;4994230;28;20552;-87
2020/12/26 05:08:21;;;;;;;18.70;16.83;;;;;;;;;;4995463;28;20316;-87
2020/12/26 05:10:51;;;;;;;18.30;16.63;;;;;;;;;;4994179;28;20182;-87
2020/12/26 05:13:24;;;;;;;19.40;17.43;;;;;;;;;;4995416;28;20201;-87
2020/12/26 05:15:56;;;;;;;19.53;17.73;;;;;;;;;;4994134;28;20186;-87
2020/12/26 05:18:25;;;;;;;18.17;16.47;;;;;;;;;;4994748;28;20226;-87
2020/12/26 05:20:58;;;;;;;16.60;15.30;;;;;;;;;;4993858;28;20185;-87
2020/12/26 05:23:30;;;;;;;18.03;16.73;;;;;;;;;;4995215;28;20232;-87
2020/12/26 05:25:59;;;;;;;19.97;17.90;;;;;;;;;;4994968;28;20253;-87
2020/12/26 05:28:33;;;;;;;20.67;18.60;;;;;;;;;;4995002;28;20261;-87
2020/12/26 05:31:11;;;;;;;18.33;16.73;;;;;;;;;;4993748;28;20181;-87
2020/12/26 05:33:38;;;;;;;18.10;16.47;;;;;;;;;;4995033;28;20197;-87
2020/12/26 05:36:09;;;;;;;17.67;16.03;;;;;;;;;;4994921;28;20178;-87
2020/12/26 05:38:41;;;;;;;20.17;17.90;;;;;;;;;;4993508;28;20205;-87
2020/12/26 05:41:11;;;;;;;19.87;16.90;;;;;;;;;;4993605;28;20178;-87
2020/12/26 05:43:44;;;;;;;19.23;17.43;;;;;;;;;;4994626;28;20204;-87
2020/12/26 05:46:16;;;;;;;18.07;16.37;;;;;;;;;;4993399;28;20212;-87
2020/12/26 05:48:49;;;;;;;18.20;16.17;;;;;;;;;;4994691;28;20228;-87
2020/12/26 05:51:36;;;;;;;16.80;15.23;;;;;;;;;;4993450;28;20265;-87
2020/12/26 05:54:07;;;;;;;18.43;16.13;;;;;;;;;;4993974;28;20227;-87
2020/12/26 05:56:39;;;;;;;16.47;15.07;;;;;;;;;;4993309;28;20175;-87
2020/12/26 05:59:28;;;;;;;23.83;15.73;;;;;;;;;;4993672;28;20262;-87
2020/12/26 06:02:01;;;;;;;19.80;16.93;;;;;;;;;;4992894;28;20186;-87
2020/12/26 06:04:36;;;;;;;19.10;17.43;;;;;;;;;;4994606;28;20759;-87
2020/12/26 06:07:08;;;;;;;19.00;17.37;;;;;;;;;;4993090;28;20201;-87
2020/12/26 06:09:40;;;;;;;18.47;17.07;;;;;;;;;;4993119;28;20183;-87
2020/12/26 06:12:16;;;;;;;20.60;18.67;;;;;;;;;;4994206;28;20185;-87
2020/12/26 06:14:48;;;;;;;17.40;15.77;;;;;;;;;;4992932;28;20197;-87
2020/12/26 06:17:29;;;;;;;18.53;17.07;;;;;;;;;;4994236;28;20175;-87
2020/12/26 06:20:05;;;;;;;18.87;17.30;;;;;;;;;;4992914;28;20186;-87
2020/12/26 06:22:50;;;;;;;18.00;16.53;;;;;;;;;;4994460;28;20258;-87
2020/12/26 06:25:25;;;;;;;18.40;17.10;;;;;;;;;;4992842;28;20209;-87
2020/12/26 06:27:53;;;;;;;18.53;17.17;;;;;;;;;;4992696;28;20205;-87
2020/12/26 06:30:25;;;;;;;19.67;17.77;;;;;;;;;;4993097;28;20182;-87
2020/12/26 06:32:55;;;;;;;17.23;15.73;;;;;;;;;;4994074;28;20558;-87
2020/12/26 06:35:28;;;;;;;16.10;14.97;;;;;;;;;;4993196;28;20189;-86
2020/12/26 06:38:21;;;;;;;18.67;17.20;;;;;;;;;;4993991;28;20160;-86
2020/12/26 06:40:56;;;;;;;15.90;14.63;;;;;;;;;;4993258;28;20625;-86
2020/12/26 06:43:43;;;;;;;13.40;12.40;;;;;;;;;;4992586;28;20253;-86
2020/12/26 06:46:21;;;;;;;15.50;14.20;;;;;;;;;;4992463;28;20206;-86
2020/12/26 06:48:49;;;;;;;14.90;13.90;;;;;;;;;;4992596;28;20206;-86
2020/12/26 06:51:23;;;;;;;22.57;16.97;;;;;;;;;;4993700;28;20297;-86
2020/12/26 06:53:56;;;;;;;17.70;16.30;;;;;;;;;;4992419;28;20198;-86
2020/12/26 06:56:37;;;;;;;16.73;15.43;;;;;;;;;;4992606;28;20184;-86
2020/12/26 06:59:11;;;;;;;15.83;14.60;;;;;;;;;;4992790;28;20650;-86
2020/12/26 07:01:44;;;;;;;15.63;14.63;;;;;;;;;;4992486;28;20210;-86
2020/12/26 07:04:16;;;;;;;17.27;15.93;;;;;;;;;;4993815;28;20245;-86
2020/12/26 07:06:55;;;;;;;18.60;16.93;;;;;;;;;;4992275;28;20198;-86
2020/12/26 07:09:51;;;;;;;16.30;15.00;;;;;;;;;;4992412;28;20647;-86
2020/12/26 07:12:21;;;;;;;18.30;16.90;;;;;;;;;;4981402;28;20289;-86
2020/12/26 07:14:51;;;;;;;17.23;15.80;;;;;;;;;;4997359;28;20193;-86
2020/12/26 07:17:35;;;;;;;17.37;15.87;;;;;;;;;;4997725;28;20183;-86
2020/12/26 07:20:01;;;;;;;15.23;14.13;;;;;;;;;;4997412;28;20643;-86
2020/12/26 07:22:34;;;;;;;16.73;15.37;;;;;;;;;;4996155;28;20182;-86
2020/12/26 07:25:11;;;;;;;16.60;15.13;;;;;;;;;;4997845;28;20226;-86
2020/12/26 07:27:40;;;;;;;15.80;14.80;;;;;;;;;;4995919;28;20209;-87
2020/12/26 07:30:06;;;;;;;18.17;16.30;;;;;;;;;;4995961;28;20265;-86
2020/12/26 07:32:51;;;;;;;16.37;14.97;;;;;;;;;;4997192;28;20206;-86
2020/12/26 07:35:27;;;;;;;16.07;15.03;;;;;;;;;;4996952;28;20229;-86
2020/12/26 07:38:01;;;;;;;15.87;14.77;;;;;;;;;;4997130;28;20298;-86
2020/12/26 07:40:35;;;;;;;15.37;14.33;;;;;;;;;;4995850;28;20269;-86
2020/12/26 07:43:09;;;;;;;17.07;15.50;;;;;;;;;;4995718;28;20674;-86
2020/12/26 07:45:44;;;;;;;16.60;15.17;;;;;;;;;;4995742;28;20208;-86
2020/12/26 07:48:21;;;;;;;15.63;14.57;;;;;;;;;;4996774;28;20618;-86
2020/12/26 07:50:49;;;;;;;18.50;16.87;;;;;;;;;;4995607;28;20245;-86
2020/12/26 07:53:20;;;;;;;14.80;13.90;;;;;;;;;;4996750;28;20205;-86
2020/12/26 07:55:51;;;;;;;17.07;15.60;;;;;;;;;;4997316;28;20180;-86
2020/12/26 07:58:22;;;;;;;15.90;14.90;;;;;;;;;;4995706;28;20644;-86
2020/12/26 08:00:53;;;;;;;17.60;16.40;;;;;;;;;;4996647;28;20667;-86
2020/12/26 08:03:20;;;;;;;16.57;15.20;;;;;;;;;;4995116;28;20209;-86
2020/12/26 08:05:53;;;;;;;16.67;15.47;;;;;;;;;;4995286;28;20656;-87
2020/12/26 08:08:26;;;;;;;16.40;15.27;;;;;;;;;;4995349;28;20186;-86
2020/12/26 08:11:01;;;;;;;16.43;15.03;;;;;;;;;;4995266;28;20202;-86
2020/12/26 08:13:31;;;;;;;15.07;14.00;;;;;;;;;;4996418;28;20210;-86
2020/12/26 08:16:07;;;;;;;16.20;15.00;;;;;;;;;;4996569;28;20174;-86
2020/12/26 08:18:38;;;;;;;15.00;13.87;;;;;;;;;;4996634;28;20182;-86
2020/12/26 08:21:10;;;;;;;15.33;14.23;;;;;;;;;;4995072;28;20174;-86
2020/12/26 08:23:46;;;;;;;15.80;14.57;;;;;;;;;;4995919;28;20202;-86
2020/12/26 08:26:16;;;;;;;15.13;13.97;;;;;;;;;;4994877;28;20171;-86
2020/12/26 08:28:49;;;;;;;14.43;13.43;;;;;;;;;;4994838;28;20719;-86
2020/12/26 08:31:25;;;;;;;14.27;13.27;;;;;;;;;;4995644;28;20181;-86
2020/12/26 08:33:57;;;;;;;12.87;11.70;;;;;;;;;;4996389;28;20223;-86
2020/12/26 08:36:36;;;;;;;13.40;12.20;;;;;;;;;;4995659;28;20183;-86
2020/12/26 08:39:08;;;;;;;12.87;11.87;;;;;;;;;;4994728;28;20185;-86
2020/12/26 08:41:45;;;;;;;14.00;12.90;;;;;;;;;;4995237;28;20590;-86
2020/12/26 08:44:14;;;;;;;14.23;13.23;;;;;;;;;;4994706;28;20202;-87
2020/12/26 08:46:47;;;;;;;15.13;13.67;;;;;;;;;;4995696;28;20208;-86
2020/12/26 08:49:21;;;;;;;14.40;13.30;;;;;;;;;;4995834;28;20171;-85
2020/12/26 08:51:52;;;;;;;13.73;12.83;;;;;;;;;;4994440;28;20183;-86
2020/12/26 08:54:25;;;;;;;14.40;13.37;;;;;;;;;;4994302;28;20706;-86
2020/12/26 08:56:51;;;;;;;13.67;12.77;;;;;;;;;;4994307;28;20638;-86
2020/12/26 08:59:29;;;;;;;13.37;12.20;;;;;;;;;;4994340;28;20702;-86
2020/12/26 09:01:58;;;;;;;13.47;12.53;;;;;;;;;;4994247;28;20185;-86
2020/12/26 09:04:31;;;;;;;14.70;13.60;;;;;;;;;;4993963;28;20225;-86
2020/12/26 09:07:01;;;;;;;12.53;11.47;;;;;;;;;;4994098;28;20292;-86
2020/12/26 09:09:31;;;;;;;11.73;11.03;;;;;;;;;;4995337;28;20178;-86
2020/12/26 09:12:04;;;;;;;12.43;11.73;;;;;;;;;;4995298;28;20265;-86
2020/12/26 09:14:39;;;;;;;15.07;13.67;;;;;;;;;;4994239;28;20291;-86
2020/12/26 09:17:10;;;;;;;12.87;12.07;;;;;;;;;;4994749;28;20185;-86
2020/12/26 09:19:56;;;;;;;15.47;11.87;;;;;;;;;;4995369;28;20208;-86
2020/12/26 09:22:31;;;;;;;13.07;12.17;;;;;;;;;;4993923;28;20192;-86
2020/12/26 09:25:04;;;;;;;14.00;11.83;;;;;;;;;;4993895;28;20205;-86
2020/12/26 09:27:38;;;;;;;10.70;10.00;;;;;;;;;;4993753;28;20201;-86
2020/12/26 09:30:10;;;;;;;13.43;12.30;;;;;;;;;;4995328;28;20162;-87
2020/12/26 09:32:42;;;;;;;14.23;13.23;;;;;;;;;;4993665;28;20178;-86
2020/12/26 09:35:21;;;;;;;12.63;11.83;;;;;;;;;;4993020;28;20175;-86
2020/12/26 09:37:59;;;;;;;13.67;12.57;;;;;;;;;;4993535;28;20544;-86
2020/12/26 09:40:30;;;;;;;12.80;12.00;;;;;;;;;;4993581;28;20216;-86
2020/12/26 09:42:57;;;;;;;13.57;12.57;;;;;;;;;;4995047;28;20182;-86
2020/12/26 09:45:24;;;;;;;12.43;11.53;;;;;;;;;;4993590;28;20239;-86
2020/12/26 09:47:50;;;;;;;13.57;12.57;;;;;;;;;;4994693;28;20674;-86
2020/12/26 09:50:21;;;;;;;13.53;12.40;;;;;;;;;;4993437;28;20184;-86
2020/12/26 09:52:49;;;;;;;11.47;10.70;;;;;;;;;;4993256;28;20270;-86
2020/12/26 09:55:20;;;;;;;12.87;12.07;;;;;;;;;;4994572;28;20177;-86
2020/12/26 09:57:54;;;;;;;12.63;11.73;;;;;;;;;;4993746;28;20198;-86
2020/12/26 10:00:22;;;;;;;13.07;12.17;;;;;;;;;;4993169;28;20187;-86
2020/12/26 10:02:50;;;;;;;14.27;13.20;;;;;;;;;;4993365;28;20225;-86
2020/12/26 10:05:21;;;;;;;12.77;11.80;;;;;;;;;;4994327;28;20199;-86
2020/12/26 10:07:52;;;;;;;13.93;12.73;;;;;;;;;;4994460;28;20193;-86
2020/12/26 10:10:21;;;;;;;13.40;12.60;;;;;;;;;;4993087;28;20242;-86
2020/12/26 10:12:48;;;;;;;13.87;12.77;;;;;;;;;;4993041;28;20183;-86
2020/12/26 10:15:14;;;;;;;13.43;12.33;;;;;;;;;;4994575;28;20189;-86
2020/12/26 10:17:40;;;;;;;15.17;13.03;;;;;;;;;;4992972;28;20277;-86
2020/12/26 10:20:07;;;;;;;14.10;13.10;;;;;;;;;;4992985;28;20187;-86
2020/12/26 10:22:34;;;;;;;11.87;11.03;;;;;;;;;;4992956;28;20186;-86
2020/12/26 10:25:04;;;;;;;13.73;12.60;;;;;;;;;;4994198;28;20200;-86
2020/12/26 10:27:38;;;;;;;13.10;12.27;;;;;;;;;;4993943;28;20289;-86
2020/12/26 10:30:09;;;;;;;12.57;11.27;;;;;;;;;;4992716;28;20179;-86
2020/12/26 10:32:45;;;;;;;14.67;13.10;;;;;;;;;;4992600;28;20552;-87
2020/12/26 10:35:18;;;;;;;13.67;12.50;;;;;;;;;;4992776;28;20180;-87
2020/12/26 10:37:51;;;;;;;13.40;12.23;;;;;;;;;;4992804;28;20178;-87
2020/12/26 10:40:25;;;;;;;12.23;11.13;;;;;;;;;;4993204;28;20186;-86
2020/12/26 10:43:00;;;;;;;12.87;11.97;;;;;;;;;;4994019;28;20191;-86
2020/12/26 10:45:31;;;;;;;16.33;14.47;;;;;;;;;;4994158;28;20179;-86
2020/12/26 10:48:00;;;;;;;14.43;13.10;;;;;;;;;;4994004;28;20226;-86
2020/12/26 10:50:30;;;;;;;13.23;12.03;;;;;;;;;;4994280;28;20522;-86
2020/12/26 10:53:00;;;;;;;13.73;12.70;;;;;;;;;;4993670;28;20204;-87
2020/12/26 10:55:35;;;;;;;14.20;12.83;;;;;;;;;;4992471;28;20231;-86
2020/12/26 10:58:03;;;;;;;16.20;14.60;;;;;;;;;;4994005;28;20241;-87
2020/12/26 11:00:35;;;;;;;15.77;12.47;;;;;;;;;;4993797;28;20178;-87
2020/12/26 11:03:05;;;;;;;15.03;13.70;;;;;;;;;;4993434;28;20202;-87
2020/12/26 11:05:37;;;;;;;17.90;15.77;;;;;;;;;;4993999;28;20179;-87
2020/12/26 11:08:04;;;;;;;16.93;13.27;;;;;;;;;;4992359;28;20295;-87
2020/12/26 11:10:30;;;;;;;13.97;12.77;;;;;;;;;;4992531;28;20185;-87
2020/12/26 11:12:58;;;;;;;16.57;15.00;;;;;;;;;;4993618;28;20207;-87
2020/12/26 11:15:31;;;;;;;16.47;15.13;;;;;;;;;;4993624;28;20293;-86
2020/12/26 11:18:01;;;;;;;15.00;13.93;;;;;;;;;;4992430;28;20601;-86
2020/12/26 11:20:33;;;;;;;15.50;14.33;;;;;;;;;;4993821;28;20178;-87
2020/12/26 11:23:04;;;;;;;15.27;13.90;;;;;;;;;;4992248;28;20185;-86
2020/12/26 11:25:38;;;;;;;16.20;14.70;;;;;;;;;;4993601;28;20203;-86
2020/12/26 11:28:10;;;;;;;18.33;16.47;;;;;;;;;;4993431;28;20283;-86
2020/12/26 11:30:41;;;;;;;17.40;15.47;;;;;;;;;;4993668;28;20570;-86
2020/12/26 11:33:09;;;;;;;15.03;13.07;;;;;;;;;;4992072;28;20204;-86
2020/12/26 11:35:41;;;;;;;15.37;14.13;;;;;;;;;;4993505;28;20187;-86
2020/12/26 11:38:15;;;;;;;17.50;16.10;;;;;;;;;;4992202;28;20599;-86
2020/12/26 11:40:46;;;;;;;16.30;15.00;;;;;;;;;;4993478;28;20184;-87
2020/12/26 11:43:12;;;;;;;15.97;14.23;;;;;;;;;;4992419;28;20550;-87
2020/12/26 11:45:46;;;;;;;16.33;15.07;;;;;;;;;;4992117;28;20186;-87
2020/12/26 11:48:12;;;;;;;19.47;17.60;;;;;;;;;;4992124;28;20200;-87
2020/12/26 11:50:44;;;;;;;19.17;17.37;;;;;;;;;;4992066;28;20550;-87
2020/12/26 11:53:18;;;;;;;17.77;16.27;;;;;;;;;;4993167;28;20200;-87
2020/12/26 11:55:53;;;;;;;18.60;16.87;;;;;;;;;;4993296;28;20175;-87
2020/12/26 11:58:26;;;;;;;19.17;17.37;;;;;;;;;;4993935;28;20689;-87
2020/12/26 12:00:54;;;;;;;20.87;18.97;;;;;;;;;;4995467;28;20586;-86
2020/12/26 12:03:26;;;;;;;19.03;17.23;;;;;;;;;;4996528;28;20209;-87
2020/12/26 12:05:54;;;;;;;18.00;16.67;;;;;;;;;;4996894;28;20281;-87
2020/12/26 12:08:25;;;;;;;18.00;16.53;;;;;;;;;;4996422;28;20243;-87
2020/12/26 12:10:58;;;;;;;20.83;18.80;;;;;;;;;;4995229;28;20179;-86
2020/12/26 12:13:30;;;;;;;17.23;15.83;;;;;;;;;;4995120;28;20232;-86
2020/12/26 12:16:03;;;;;;;19.93;18.13;;;;;;;;;;4995154;28;20171;-87
2020/12/26 12:18:39;;;;;;;22.27;20.03;;;;;;;;;;4995275;28;20188;-86
2020/12/26 12:21:08;;;;;;;17.33;15.83;;;;;;;;;;4995049;28;20700;-87
2020/12/26 12:23:35;;;;;;;16.00;14.50;;;;;;;;;;4995161;28;20750;-87
2020/12/26 12:26:01;;;;;;;17.40;16.10;;;;;;;;;;4996258;28;20174;-87
2020/12/26 12:28:28;;;;;;;19.40;17.83;;;;;;;;;;4994957;28;20293;-88
2020/12/26 12:30:54;;;;;;;17.10;15.57;;;;;;;;;;4994918;28;20194;-87
2020/12/26 12:33:21;;;;;;;19.70;17.87;;;;;;;;;;4996058;28;20197;-87
2020/12/26 12:35:54;;;;;;;19.60;17.87;;;;;;;;;;4994928;28;20186;-87
2020/12/26 12:38:22;;;;;;;17.90;16.07;;;;;;;;;;4996146;28;20168;-87
2020/12/26 12:40:50;;;;;;;18.03;16.53;;;;;;;;;;4994817;28;20236;-87
2020/12/26 12:43:16;;;;;;;18.37;16.87;;;;;;;;;;4994736;28;20289;-87
2020/12/26 12:45:42;;;;;;;17.50;15.80;;;;;;;;;;4996501;28;20213;-87
2020/12/26 12:48:08;;;;;;;17.13;15.57;;;;;;;;;;4995824;28;20195;-87
2020/12/26 12:50:35;;;;;;;16.93;15.37;;;;;;;;;;4994632;28;20180;-87
2020/12/26 12:53:05;;;;;;;17.73;15.93;;;;;;;;;;4995793;28;20177;-87
2020/12/26 12:55:31;;;;;;;17.17;15.80;;;;;;;;;;4996487;28;20549;-87
2020/12/26 12:58:00;;;;;;;18.60;16.80;;;;;;;;;;4995674;28;20188;-87
2020/12/26 13:00:27;;;;;;;20.63;18.73;;;;;;;;;;4994398;28;20240;-87
2020/12/26 13:02:55;;;;;;;19.77;17.80;;;;;;;;;;4994129;28;20189;-87
2020/12/26 13:05:22;;;;;;;22.47;20.43;;;;;;;;;;4994364;28;20176;-87
2020/12/26 13:07:53;;;;;;;20.27;18.47;;;;;;;;;;4994279;28;20198;-87
2020/12/26 13:10:20;;;;;;;17.87;16.57;;;;;;;;;;4993317;28;20238;-87
2020/12/26 13:12:50;;;;;;;19.47;17.43;;;;;;;;;;4995596;28;20184;-87
2020/12/26 13:15:24;;;;;;;17.73;16.30;;;;;;;;;;4994069;28;20630;-87
2020/12/26 13:17:50;;;;;;;15.37;14.13;;;;;;;;;;4993988;28;20231;-87
2020/12/26 13:20:16;;;;;;;19.67;17.47;;;;;;;;;;4994002;28;20184;-87
2020/12/26 13:22:49;;;;;;;16.23;14.90;;;;;;;;;;4995121;28;20247;-87
2020/12/26 13:25:17;;;;;;;14.53;13.43;;;;;;;;;;4993873;28;20267;-87
2020/12/26 13:27:43;;;;;;;15.57;14.47;;;;;;;;;;4995279;28;20229;-86
2020/12/26 13:30:15;;;;;;;15.67;14.47;;;;;;;;;;4993861;28;20268;-87
2020/12/26 13:32:41;;;;;;;17.70;16.40;;;;;;;;;;4993784;28;20205;-86
2020/12/26 13:35:11;;;;;;;17.17;15.83;;;;;;;;;;4994896;28;20208;-87
2020/12/26 13:37:39;;;;;;;16.80;15.37;;;;;;;;;;4993692;28;20268;-86
2020/12/26 13:40:08;;;;;;;15.27;14.10;;;;;;;;;;4994925;28;20181;-86
2020/12/26 13:42:35;;;;;;;16.30;15.03;;;;;;;;;;4993510;28;20692;-86
2020/12/26 13:45:04;;;;;;;19.83;18.03;;;;;;;;;;4993485;28;20229;-86
2020/12/26 13:47:31;;;;;;;17.90;16.17;;;;;;;;;;4993488;28;20233;-86
2020/12/26 13:49:57;;;;;;;17.27;15.87;;;;;;;;;;4994604;28;20183;-86
2020/12/26 13:52:23;;;;;;;17.40;15.90;;;;;;;;;;4993401;28;20185;-86
2020/12/26 13:54:50;;;;;;;18.10;16.60;;;;;;;;;;4994438;28;20194;-86
2020/12/26 13:57:16;;;;;;;17.27;15.73;;;;;;;;;;4993370;28;20675;-87
2020/12/26 13:59:42;;;;;;;19.40;17.80;;;;;;;;;;4994831;28;20630;-87
2020/12/26 14:02:09;;;;;;;15.80;14.57;;;;;;;;;;4993230;28;20182;-86
2020/12/26 14:04:36;;;;;;;16.43;14.87;;;;;;;;;;4993147;28;20229;-86
2020/12/26 14:07:08;;;;;;;18.60;16.90;;;;;;;;;;4993080;28;20230;-86
2020/12/26 14:09:39;;;;;;;17.90;15.83;;;;;;;;;;4993113;28;20591;-86
2020/12/26 14:12:06;;;;;;;18.13;16.43;;;;;;;;;;4993099;28;20173;-86
2020/12/26 14:14:33;;;;;;;14.93;13.83;;;;;;;;;;4992966;28;20211;-86
2020/12/26 14:17:00;;;;;;;19.17;17.03;;;;;;;;;;4993082;28;20187;-85
2020/12/26 14:19:29;;;;;;;15.60;14.00;;;;;;;;;;4993107;28;20568;-85
2020/12/26 14:21:55;;;;;;;15.67;14.40;;;;;;;;;;4992622;28;20196;-86
2020/12/26 14:24:21;;;;;;;15.97;14.40;;;;;;;;;;4994155;28;20197;-86
2020/12/26 14:26:48;;;;;;;17.13;15.60;;;;;;;;;;4993986;28;20208;-85
2020/12/26 14:29:14;;;;;;;16.37;14.87;;;;;;;;;;4992784;28;20205;-86
2020/12/26 14:31:40;;;;;;;18.77;16.67;;;;;;;;;;4992847;28;20182;-85
2020/12/26 14:34:08;;;;;;;17.33;15.90;;;;;;;;;;4992751;28;20206;-86
2020/12/26 14:36:34;;;;;;;19.03;17.40;;;;;;;;;;4992779;28;20231;-85